Bellamy, Alabama
Current Conditions -  °F | °C
As of 8:55 AM on Wednesday 22 Oct 2014 (Local Time) from KDYA Reporting Station
Clear Clear  
Wind Chill: 57°   Ceiling: Unl
Heat Index: 57°   Visibility: 10mi
Dew Point: 56°   Wind: 0mph
Humidity: 98%   Direction: NA
Pressure: 30.16"   Gusts: NA
Location:  32.45°N, 88.13°W
Report Text: KDYA 221355Z AUTO 00000KT 10SM CLR 14/14 A3016 RMK AO2 T01380135
Loading
Personal Weather Stations






























Interactive Weather Map
Tropical Storm Tracking
New forecast layout! Learn more

10-Day Weather Forecast

Advertisements
Track Severe Weather on mobile